Arrowbear Lake, California
Current Conditions -  °F | °C
As of 1:55 PM on Tuesday 25 Nov 2014 (Local Time) from KL35 Reporting Station
Clear Clear  
Wind Chill: 59°   Ceiling: Unl
Heat Index: 59°   Visibility: 10mi
Dew Point: -6°   Wind: 5mph
Humidity: 7%   Direction: 350°N
Pressure: 30.48"   Gusts: NA
Location:  34.1964°N, 117.089°W
Report Text: KL35 252155Z AUTO 35004KT 10SM CLR 15/M21 A3048 RMK AO2
Loading
Personal Weather Stations






























Interactive Weather Map New forecast layout! Learn more

10-Day Weather Forecast

Advertisements
Track Severe Weather on mobile